Time;durP1;ratioP1;P1;durP2;ratioP2;P2;SDS_P1;SDS_P2;PMS_P1;PMS_P2;Temp;Humidity;BMP_temperature;BMP_pressure;BME280_temperature;BME280_humidity;BME280_pressure;Samples;Min_cycle;Max_cycle;Signal;HPM_P1;HPM_P2
2021/04/20 00:00:12;;;;;;;23.50;20.95;;;7.30;85.20;;;;;;6280121;22;20019;-42
2021/04/20 00:02:38;;;;;;;26.60;22.65;;;7.30;85.30;;;;;;6242389;22;20039;-43
2021/04/20 00:05:12;;;;;;;26.90;22.35;;;7.30;85.40;;;;;;6241814;22;20012;-42
2021/04/20 00:07:38;;;;;;;24.83;22.13;;;7.40;85.70;;;;;;6269885;22;20467;-43
2021/04/20 00:10:10;;;;;;;24.30;20.73;;;7.40;84.90;;;;;;6269400;22;20026;-41
2021/04/20 00:12:37;;;;;;;25.67;21.60;;;7.40;85.30;;;;;;6269510;22;20039;-42
2021/04/20 00:15:09;;;;;;;26.77;23.40;;;7.40;85.10;;;;;;6268641;22;20015;-42
2021/04/20 00:17:35;;;;;;;25.75;22.08;;;7.50;85.40;;;;;;6269078;22;20069;-42
2021/04/20 00:20:06;;;;;;;23.17;20.73;;;7.50;85.30;;;;;;6269983;22;20088;-42
2021/04/20 00:22:33;;;;;;;25.88;22.52;;;7.50;85.20;;;;;;6279751;22;20019;-43
2021/04/20 00:24:59;;;;;;;23.65;21.15;;;7.50;85.10;;;;;;6267860;22;20532;-43
2021/04/20 00:27:25;;;;;;;24.92;20.52;;;7.40;85.00;;;;;;6216208;22;20020;-43
2021/04/20 00:30:06;;;;;;;25.80;23.00;;;7.40;84.90;;;;;;6243955;22;20019;-42
2021/04/20 00:32:33;;;;;;;26.45;22.77;;;7.40;85.30;;;;;;6279563;22;20027;-44
2021/04/20 00:34:59;;;;;;;25.85;23.10;;;7.30;85.50;;;;;;6269015;22;20020;-42
2021/04/20 00:37:34;;;;;;;28.83;24.50;;;7.30;85.60;;;;;;6268733;22;20016;-43
2021/04/20 00:40:06;;;;;;;27.67;24.35;;;7.20;85.50;;;;;;6279001;22;20046;-43
2021/04/20 00:42:48;;;;;;;33.42;26.63;;;7.20;86.30;;;;;;6279277;22;20041;-44
2021/04/20 00:45:16;;;;;;;29.80;25.90;;;7.20;86.60;;;;;;6268173;22;20366;-42
2021/04/20 00:47:42;;;;;;;29.40;25.88;;;7.20;86.50;;;;;;6279005;22;20019;-43
2021/04/20 00:50:11;;;;;;;33.88;25.80;;;7.20;86.80;;;;;;6269073;22;20049;-43
2021/04/20 00:52:39;;;;;;;30.10;25.98;;;7.10;86.60;;;;;;6279342;22;20098;-43
2021/04/20 00:55:07;;;;;;;28.25;24.30;;;7.10;86.80;;;;;;6268921;22;20020;-42
2021/04/20 00:57:35;;;;;;;32.83;26.10;;;7.10;87.50;;;;;;6216252;22;20102;-42
2021/04/20 01:00:24;;;;;;;29.02;24.88;;;7.10;87.60;;;;;;6268702;22;20020;-42
2021/04/20 01:02:51;;;;;;;31.00;25.20;;;7.00;87.40;;;;;;6269483;22;20440;-43
2021/04/20 01:05:26;;;;;;;28.67;25.38;;;7.10;87.40;;;;;;6267807;22;20605;-42
2021/04/20 01:08:01;;;;;;;26.42;23.05;;;7.00;87.40;;;;;;6235465;23;20771;-43
2021/04/20 01:10:27;;;;;;;29.75;24.92;;;7.00;87.50;;;;;;6238083;22;20501;-43
2021/04/20 01:12:54;;;;;;;31.40;24.13;;;7.00;87.40;;;;;;6237455;22;20429;-43
2021/04/20 01:15:21;;;;;;;28.58;24.38;;;7.00;87.00;;;;;;6237399;22;20476;-41
2021/04/20 01:17:47;;;;;;;32.60;26.42;;;6.90;87.30;;;;;;6235965;23;20449;-43
2021/04/20 01:20:14;;;;;;;31.88;25.17;;;6.90;87.50;;;;;;6236993;22;20024;-43
2021/04/20 01:22:45;;;;;;;32.17;25.70;;;6.90;87.90;;;;;;6237894;22;20030;-43
2021/04/20 01:25:13;;;;;;;31.10;25.20;;;6.90;87.80;;;;;;6237886;22;20456;-42
2021/04/20 01:27:39;;;;;;;30.45;24.30;;;6.90;88.00;;;;;;6235313;23;20017;-42
2021/04/20 01:30:08;;;;;;;29.27;24.50;;;6.90;88.20;;;;;;6248285;22;20322;-44
2021/04/20 01:32:40;;;;;;;33.47;26.77;;;6.80;88.20;;;;;;6237171;22;20514;-43
2021/04/20 01:35:09;;;;;;;30.63;26.15;;;6.80;88.60;;;;;;6237635;22;20016;-43
2021/04/20 01:37:36;;;;;;;33.15;26.40;;;6.80;88.40;;;;;;6247399;22;20020;-44
2021/04/20 01:40:05;;;;;;;32.53;26.38;;;6.80;88.80;;;;;;6238009;22;20016;-41
2021/04/20 01:42:33;;;;;;;32.35;24.65;;;6.80;89.00;;;;;;6248677;22;20028;-42
2021/04/20 01:45:00;;;;;;;29.27;23.92;;;6.80;87.90;;;;;;6236531;23;20106;-42
2021/04/20 01:47:27;;;;;;;27.95;23.98;;;6.60;88.30;;;;;;6236838;22;20526;-42
2021/04/20 01:49:55;;;;;;;28.42;24.42;;;6.60;88.10;;;;;;6238232;22;20016;-42
2021/04/20 01:52:21;;;;;;;32.58;26.50;;;6.60;88.60;;;;;;6237383;23;20116;-43
2021/04/20 01:54:47;;;;;;;34.80;27.40;;;6.60;90.00;;;;;;6238710;23;20035;-42
2021/04/20 01:57:15;;;;;;;36.08;28.40;;;6.60;90.20;;;;;;6237085;23;20076;-43
2021/04/20 01:59:41;;;;;;;34.55;28.42;;;6.70;89.90;;;;;;6237311;22;20016;-42
2021/04/20 02:02:08;;;;;;;35.03;27.77;;;6.70;90.00;;;;;;6239019;22;20729;-42
2021/04/20 02:04:35;;;;;;;37.53;30.05;;;6.70;89.50;;;;;;6238788;22;20031;-44
2021/04/20 02:07:01;;;;;;;36.00;28.02;;;6.70;89.40;;;;;;6245223;22;20020;-44
2021/04/20 02:09:27;;;;;;;34.60;28.27;;;6.70;89.60;;;;;;6269739;22;20100;-43
2021/04/20 02:11:54;;;;;;;37.53;29.60;;;6.80;89.40;;;;;;6270101;22;20016;-42
2021/04/20 02:14:20;;;;;;;32.63;25.52;;;6.80;89.50;;;;;;6269863;22;20913;-42
2021/04/20 02:16:46;;;;;;;30.17;22.90;;;6.70;89.50;;;;;;6269924;22;20020;-44
2021/04/20 02:19:14;;;;;;;26.88;23.45;;;6.60;89.00;;;;;;6270929;22;20022;-44
2021/04/20 02:21:41;;;;;;;24.63;20.92;;;6.50;89.30;;;;;;6270606;22;20026;-44
2021/04/20 02:24:18;;;;;;;24.13;21.00;;;6.40;89.90;;;;;;6269876;22;20016;-43
2021/04/20 02:26:44;;;;;;;28.63;21.90;;;6.20;90.00;;;;;;6242507;22;20023;-42
2021/04/20 02:29:10;;;;;;;28.58;24.80;;;6.20;89.80;;;;;;6270262;22;20038;-42
2021/04/20 02:31:38;;;;;;;30.48;25.17;;;6.20;90.30;;;;;;6253781;22;20023;-43
2021/04/20 02:34:09;;;;;;;28.92;25.30;;;6.30;90.40;;;;;;6242771;22;20012;-42
2021/04/20 02:36:42;;;;;;;31.30;25.83;;;6.30;90.40;;;;;;6269460;22;20042;-42
2021/04/20 02:39:09;;;;;;;29.58;23.60;;;6.30;90.40;;;;;;6270127;22;20026;-44
2021/04/20 02:41:40;;;;;;;28.73;23.42;;;6.30;90.40;;;;;;6270085;22;20020;-44
2021/04/20 02:44:09;;;;;;;27.27;20.63;;;6.30;90.30;;;;;;6270748;22;20023;-43
2021/04/20 02:46:39;;;;;;;26.77;23.02;;;6.30;90.10;;;;;;6270081;22;20023;-43
2021/04/20 02:49:06;;;;;;;32.42;25.85;;;6.30;90.10;;;;;;6270137;22;20070;-43
2021/04/20 02:51:37;;;;;;;26.20;22.98;;;6.40;90.40;;;;;;6242703;22;20916;-43
2021/04/20 02:54:05;;;;;;;32.03;26.10;;;6.50;90.20;;;;;;6270092;22;20102;-42
2021/04/20 02:56:32;;;;;;;30.08;25.60;;;6.60;90.40;;;;;;6270693;22;20066;-42
2021/04/20 02:58:59;;;;;;;34.85;25.60;;;6.70;90.30;;;;;;6269638;22;20024;-42
2021/04/20 03:01:29;;;;;;;30.70;25.50;;;6.80;90.30;;;;;;6270034;22;20016;-44
2021/04/20 03:03:56;;;;;;;30.48;25.15;;;6.90;90.30;;;;;;6253595;22;20062;-43
2021/04/20 03:06:25;;;;;;;30.48;24.42;;;7.00;90.10;;;;;;6270191;22;20015;-44
2021/04/20 03:08:52;;;;;;;28.02;23.05;;;7.00;90.00;;;;;;6279233;22;20019;-45
2021/04/20 03:11:24;;;;;;;24.98;21.77;;;7.00;89.70;;;;;;6270845;22;20031;-43
2021/04/20 03:13:56;;;;;;;;;;;7.00;89.40;;;;;;6243389;22;20019;-43
2021/04/20 03:16:22;;;;;;;;;;;7.00;90.20;;;;;;6246357;22;19923;-46
2021/04/20 03:18:49;;;;;;;24.48;20.90;;;7.00;90.10;;;;;;6241862;22;19919;-42
2021/04/20 03:21:16;;;;;;;25.30;21.27;;;7.00;89.50;;;;;;6269777;22;20039;-42
2021/04/20 03:23:43;;;;;;;38.33;29.27;;;7.00;90.00;;;;;;6270455;22;20015;-42
2021/04/20 03:26:24;;;;;;;40.17;32.13;;;7.10;90.30;;;;;;6269981;22;20023;-44
2021/04/20 03:28:54;;;;;;;41.38;31.27;;;7.20;90.60;;;;;;6269045;22;20018;-42
2021/04/20 03:31:21;;;;;;;38.03;30.95;;;7.20;90.40;;;;;;6280192;22;20015;-43
2021/04/20 03:33:52;;;;;;;46.92;34.65;;;7.20;90.30;;;;;;6242708;22;20051;-42
2021/04/20 03:36:31;;;;;;;41.05;33.42;;;7.30;90.40;;;;;;6244494;22;20043;-42
2021/04/20 03:39:04;;;;;;;40.83;31.30;;;7.40;90.50;;;;;;6243535;22;20020;-42
2021/04/20 03:41:39;;;;;;;43.80;32.47;;;7.40;90.40;;;;;;6271114;22;20016;-43
2021/04/20 03:44:09;;;;;;;42.45;31.17;;;7.40;90.50;;;;;;6253678;22;20027;-45
2021/04/20 03:46:41;;;;;;;33.03;27.50;;;7.40;90.40;;;;;;6281155;22;20020;-44
2021/04/20 03:49:20;;;;;;;31.92;24.30;;;7.40;90.50;;;;;;6269449;22;20046;-43
2021/04/20 03:51:48;;;;;;;34.92;27.67;;;7.30;90.40;;;;;;6279619;22;20554;-43
2021/04/20 03:54:17;;;;;;;32.30;28.17;;;7.20;90.30;;;;;;6270205;22;20073;-43
2021/04/20 03:56:46;;;;;;;32.40;27.05;;;7.20;90.50;;;;;;6242494;22;20015;-43
2021/04/20 03:59:15;;;;;;;31.75;26.35;;;7.20;90.70;;;;;;6279139;22;20015;-43
2021/04/20 04:01:46;;;;;;;35.05;27.02;;;7.10;90.70;;;;;;6269267;22;20020;-43
2021/04/20 04:04:25;;;;;;;31.70;26.13;;;7.10;90.70;;;;;;6268608;22;20020;-43
2021/04/20 04:06:52;;;;;;;35.40;29.42;;;7.10;90.60;;;;;;6269432;22;20028;-44
2021/04/20 04:09:19;;;;;;;36.92;28.88;;;7.10;90.70;;;;;;6268300;22;20016;-45
2021/04/20 04:11:54;;;;;;;37.15;31.33;;;7.10;90.90;;;;;;6269095;22;20015;-43
2021/04/20 04:14:23;;;;;;;37.15;29.20;;;7.00;90.90;;;;;;6268892;22;20020;-44
2021/04/20 04:16:50;;;;;;;37.53;29.63;;;7.10;90.70;;;;;;6279162;22;20024;-43
2021/04/20 04:19:21;;;;;;;35.13;29.10;;;7.00;90.50;;;;;;6278366;22;20427;-43
2021/04/20 04:21:52;;;;;;;39.03;29.25;;;6.90;90.80;;;;;;6269761;22;20031;-43
2021/04/20 04:24:19;;;;;;;36.80;29.00;;;6.90;90.70;;;;;;6279172;22;20019;-44
2021/04/20 04:26:50;;;;;;;40.17;30.50;;;6.80;90.60;;;;;;6268914;22;20016;-44
2021/04/20 04:29:19;;;;;;;41.05;30.92;;;6.80;90.60;;;;;;6268470;22;20019;-43
2021/04/20 04:31:47;;;;;;;46.95;34.80;;;6.80;90.70;;;;;;6279231;22;20022;-42
2021/04/20 04:34:17;;;;;;;48.50;36.50;;;6.70;90.70;;;;;;6270405;22;20047;-38
2021/04/20 04:36:47;;;;;;;41.08;33.83;;;6.80;91.00;;;;;;6268068;22;20019;-37
2021/04/20 04:39:17;;;;;;;37.88;30.95;;;6.70;91.90;;;;;;6277829;22;20110;-38
2021/04/20 04:41:47;;;;;;;35.47;27.17;;;6.70;91.70;;;;;;6279388;22;20058;-38
2021/04/20 04:44:14;;;;;;;35.72;28.63;;;6.60;91.40;;;;;;6242343;22;20025;-38
2021/04/20 04:46:41;;;;;;;35.63;29.48;;;6.60;91.30;;;;;;6282159;22;20066;-37
2021/04/20 04:49:09;;;;;;;40.53;29.95;;;6.60;91.10;;;;;;6278653;22;20121;-37
2021/04/20 04:51:39;;;;;;;43.92;33.67;;;6.60;91.10;;;;;;6278207;22;20401;-37
2021/04/20 04:54:10;;;;;;;46.95;35.75;;;6.60;91.10;;;;;;6278900;22;20095;-38
2021/04/20 04:56:39;;;;;;;48.35;36.90;;;6.60;91.60;;;;;;6241523;22;20131;-39
2021/04/20 04:59:07;;;;;;;51.58;40.17;;;6.70;91.50;;;;;;6273657;22;20520;-36
2021/04/20 05:01:40;;;;;;;59.90;42.75;;;6.70;91.50;;;;;;6279588;22;20043;-37
2021/04/20 05:04:10;;;;;;;67.05;45.40;;;6.70;91.60;;;;;;6240517;22;20031;-37
2021/04/20 05:06:48;;;;;;;65.32;45.03;;;6.80;91.80;;;;;;6241500;22;20043;-37
2021/04/20 05:09:17;;;;;;;65.80;44.33;;;6.90;91.80;;;;;;6266909;22;20020;-38
2021/04/20 05:11:44;;;;;;;65.50;46.75;;;6.90;91.80;;;;;;6268432;22;20020;-37
2021/04/20 05:14:18;;;;;;;62.78;43.70;;;7.00;91.80;;;;;;6268876;22;20035;-38
2021/04/20 05:16:49;;;;;;;64.55;45.45;;;7.10;91.80;;;;;;6278195;22;20019;-37
2021/04/20 05:19:28;;;;;;;62.40;43.47;;;7.20;91.80;;;;;;6267486;22;20016;-37
2021/04/20 05:21:59;;;;;;;60.33;43.97;;;7.30;91.80;;;;;;6268266;22;20111;-38
2021/04/20 05:24:26;;;;;;;63.80;45.90;;;7.40;91.80;;;;;;6267364;22;20019;-37
2021/04/20 05:26:55;;;;;;;61.92;45.65;;;7.40;91.90;;;;;;6278272;22;20015;-38
2021/04/20 05:29:21;;;;;;;64.40;46.38;;;7.60;91.90;;;;;;6268376;22;20091;-40
2021/04/20 05:31:49;;;;;;;65.40;46.42;;;7.70;92.10;;;;;;6267299;22;20432;-39
2021/04/20 05:34:19;;;;;;;64.57;47.92;;;7.80;91.90;;;;;;6268907;22;20046;-39
2021/04/20 05:36:47;;;;;;;67.93;48.38;;;7.80;91.90;;;;;;6243655;22;20016;-39
2021/04/20 05:39:15;;;;;;;67.05;47.42;;;7.90;92.00;;;;;;6269564;22;20106;-39
2021/04/20 05:41:42;;;;;;;75.93;48.40;;;8.00;92.00;;;;;;6282122;22;20015;-39
2021/04/20 05:44:14;;;;;;;66.35;47.67;;;8.10;91.80;;;;;;6271135;22;20023;-39
2021/04/20 05:47:01;;;;;;;66.68;46.80;;;8.20;91.70;;;;;;6225613;22;20026;-40
2021/04/20 05:49:27;;;;;;;68.57;50.00;;;8.40;91.70;;;;;;6269176;22;20066;-39
2021/04/20 05:51:54;;;;;;;79.30;60.67;;;8.50;91.60;;;;;;6242783;22;20796;-39
2021/04/20 05:54:23;;;;;;;76.45;58.33;;;8.60;91.50;;;;;;6280787;22;20420;-40
2021/04/20 05:56:49;;;;;;;60.33;48.92;;;8.80;91.40;;;;;;6280020;22;20356;-40
2021/04/20 05:59:19;;;;;;;65.40;49.78;;;9.00;91.30;;;;;;6269929;22;20035;-40
2021/04/20 06:01:46;;;;;;;62.70;47.47;;;9.10;91.10;;;;;;6267703;22;20082;-40
2021/04/20 06:04:13;;;;;;;64.68;48.45;;;9.20;90.90;;;;;;6269174;22;20336;-41
2021/04/20 06:06:41;;;;;;;58.28;46.40;;;9.40;90.80;;;;;;6241505;22;20039;-39
2021/04/20 06:09:09;;;;;;;57.13;47.22;;;9.50;90.70;;;;;;6278883;22;20051;-39
2021/04/20 06:11:38;;;;;;;57.30;46.72;;;9.60;90.60;;;;;;6268974;22;20019;-40
2021/04/20 06:14:07;;;;;;;64.13;47.67;;;9.80;90.50;;;;;;6269951;22;20016;-38
2021/04/20 06:16:35;;;;;;;53.15;44.90;;;9.90;90.20;;;;;;6269510;22;20019;-38
2021/04/20 06:19:05;;;;;;;60.13;50.07;;;10.10;89.50;;;;;;6242455;22;20016;-39
2021/04/20 06:21:34;;;;;;;96.70;80.20;;;10.20;88.10;;;;;;6217054;22;20015;-38
2021/04/20 06:24:08;;;;;;;63.25;52.25;;;10.60;88.00;;;;;;6216588;22;20022;-37
2021/04/20 06:26:41;;;;;;;79.07;64.63;;;10.60;87.40;;;;;;6227348;22;20356;-38
2021/04/20 06:29:13;;;;;;;58.25;47.67;;;10.80;85.50;;;;;;6218042;22;20487;-37
2021/04/20 06:31:39;;;;;;;70.55;58.00;;;11.00;85.60;;;;;;6278921;22;20027;-38
2021/04/20 06:34:07;;;;;;;56.40;49.10;;;11.10;85.30;;;;;;6242994;22;20444;-37
2021/04/20 06:36:38;;;;;;;98.13;87.32;;;11.30;84.90;;;;;;6270290;22;20043;-37
2021/04/20 06:39:06;;;;;;;158.75;133.30;;;11.60;83.60;;;;;;6268988;22;20073;-37
2021/04/20 06:41:38;;;;;;;71.22;61.70;;;11.80;84.10;;;;;;6268640;22;20050;-38
2021/04/20 06:44:05;;;;;;;55.13;46.88;;;12.00;82.80;;;;;;6269517;22;20020;-38
2021/04/20 06:47:19;;;;;;;68.18;59.15;;;12.10;81.80;;;;;;6270027;22;20020;-38
2021/04/20 06:49:55;;;;;;;63.72;53.45;;;12.20;81.20;;;;;;6241449;22;20012;-38
2021/04/20 06:52:37;;;;;;;52.60;46.20;;;12.50;80.80;;;;;;6242290;22;20015;-39
2021/04/20 06:55:11;;;;;;;51.75;42.42;;;12.50;80.40;;;;;;6241596;22;20151;-40
2021/04/20 06:57:41;;;;;;;49.08;43.50;;;12.70;80.10;;;;;;6269718;22;20027;-40
2021/04/20 07:00:16;;;;;;;51.22;45.67;;;12.90;79.30;;;;;;6269049;22;20028;-41
2021/04/20 07:03:10;;;;;;;66.30;46.05;;;13.30;78.30;;;;;;6251612;22;20019;-39
2021/04/20 07:05:46;;;;;;;44.53;39.47;;;13.60;76.30;;;;;;6278981;22;20027;-39
2021/04/20 07:08:27;;;;;;;45.00;40.28;;;13.90;76.80;;;;;;6268895;22;20016;-41
2021/04/20 07:10:54;;;;;;;46.30;41.38;;;14.10;75.50;;;;;;6269292;22;20015;-40
2021/04/20 07:13:26;;;;;;;46.08;41.13;;;14.30;74.90;;;;;;6268972;22;20030;-40
2021/04/20 07:15:58;;;;;;;44.67;39.78;;;14.50;72.70;;;;;;6269002;22;20024;-39
2021/04/20 07:18:52;;;;;;;45.30;40.10;;;14.40;72.10;;;;;;6268124;22;20460;-38
2021/04/20 07:21:32;;;;;;;47.20;40.70;;;14.60;70.90;;;;;;6266193;22;20610;-38
2021/04/20 07:24:14;;;;;;;43.95;38.33;;;14.80;70.90;;;;;;6240798;22;20019;-38
2021/04/20 07:27:14;;;;;;;105.35;49.05;;;15.00;70.90;;;;;;6277869;22;20016;-40
2021/04/20 07:30:18;;;;;;;85.22;76.10;;;15.20;69.60;;;;;;6268652;22;20127;-40
2021/04/20 07:32:55;;;;;;;100.03;89.18;;;15.70;68.00;;;;;;6267116;22;20020;-40
2021/04/20 07:35:26;;;;;;;53.13;47.65;;;15.60;67.40;;;;;;6279361;22;20362;-40
2021/04/20 07:37:58;;;;;;;66.55;59.78;;;15.70;69.50;;;;;;6267736;22;20047;-40
2021/04/20 07:41:13;;;;;;;44.50;39.85;;;15.80;67.90;;;;;;6278877;22;20023;-41
2021/04/20 07:44:27;;;;;;;226.25;201.77;;;16.10;66.80;;;;;;6154405;23;20096;-40
2021/04/20 07:46:58;;;;;;;55.53;49.55;;;16.20;65.70;;;;;;6134684;23;20064;-40
2021/04/20 07:50:05;;;;;;;70.72;63.08;;;16.50;66.10;;;;;;6154132;23;20099;-40
2021/04/20 07:52:59;;;;;;;46.95;42.15;;;16.50;62.90;;;;;;6152018;23;20024;-40
2021/04/20 07:55:51;;;;;;;46.10;41.38;;;16.70;62.20;;;;;;6130455;23;20025;-40
2021/04/20 07:58:21;;;;;;;42.65;38.35;;;16.90;64.20;;;;;;6151659;23;20438;-40
2021/04/20 08:01:02;;;;;;;37.70;33.95;;;17.20;64.00;;;;;;6152071;23;20028;-40
2021/04/20 08:03:59;;;;;;;38.22;34.15;;;17.30;63.00;;;;;;6117044;23;20025;-39
2021/04/20 08:06:30;;;;;;;37.08;33.30;;;17.50;60.10;;;;;;6143185;23;20648;-39
2021/04/20 08:09:21;;;;;;;34.22;30.55;;;17.60;62.50;;;;;;6128192;23;20089;-39
2021/04/20 08:11:51;;;;;;;37.15;33.22;;;17.80;58.30;;;;;;6128124;23;20415;-40
2021/04/20 08:14:40;;;;;;;31.77;28.65;;;17.90;61.30;;;;;;6119193;23;20451;-40
2021/04/20 08:17:26;;;;;;;31.90;28.40;;;18.00;58.50;;;;;;6093327;23;20032;-40
2021/04/20 08:20:23;;;;;;;31.02;27.73;;;18.20;57.80;;;;;;6213106;23;20024;-42
2021/04/20 08:22:55;;;;;;;34.20;26.65;;;18.20;58.60;;;;;;6208612;23;20024;-42
2021/04/20 08:25:30;;;;;;;34.75;31.23;;;18.40;58.20;;;;;;6221072;23;20082;-41
2021/04/20 08:28:01;;;;;;;50.58;45.13;;;18.60;57.20;;;;;;6196721;23;20015;-40
2021/04/20 08:30:47;;;;;;;69.85;62.70;;;18.80;55.40;;;;;;6238486;23;20844;-40
2021/04/20 08:33:18;;;;;;;85.70;76.95;;;18.80;55.00;;;;;;6247541;23;20038;-41
2021/04/20 08:35:49;;;;;;;73.30;65.93;;;19.10;55.20;;;;;;6246678;23;20083;-40
2021/04/20 08:38:51;;;;;;;72.75;65.00;;;19.20;55.70;;;;;;6237126;23;20548;-40
2021/04/20 08:41:41;;;;;;;28.30;25.30;;;19.40;53.40;;;;;;6247353;23;20411;-41
2021/04/20 08:44:29;;;;;;;58.72;52.97;;;19.50;54.70;;;;;;6117952;23;20028;-40
2021/04/20 08:47:17;;;;;;;28.80;25.73;;;19.70;52.40;;;;;;6143060;23;20025;-40
2021/04/20 08:50:05;;;;;;;29.10;26.10;;;19.90;53.10;;;;;;6141262;23;20022;-41
2021/04/20 08:52:43;;;;;;;28.23;25.10;;;19.90;52.00;;;;;;6141247;23;20021;-40
2021/04/20 08:55:42;;;;;;;29.92;26.80;;;20.20;53.10;;;;;;6142636;23;20022;-40
2021/04/20 08:58:27;;;;;;;44.20;39.90;;;20.80;49.30;;;;;;6142406;23;20028;-40
2021/04/20 09:01:14;;;;;;;28.17;25.35;;;20.60;49.10;;;;;;6139620;23;20017;-40
2021/04/20 09:04:04;;;;;;;32.70;29.52;;;20.60;49.30;;;;;;6140402;23;20021;-42
2021/04/20 09:06:39;;;;;;;38.35;34.67;;;20.80;48.80;;;;;;6141632;23;20021;-40
2021/04/20 09:09:09;;;;;;;42.45;38.17;;;20.80;49.70;;;;;;6113293;23;20093;-40
2021/04/20 09:11:40;;;;;;;32.67;29.38;;;20.90;48.30;;;;;;6086581;23;20017;-41
2021/04/20 09:14:10;;;;;;;28.60;25.52;;;20.90;48.40;;;;;;6097196;23;20026;-42
2021/04/20 09:16:45;;;;;;;37.03;33.45;;;20.80;48.20;;;;;;6113518;23;20093;-41
2021/04/20 09:19:33;;;;;;;29.02;26.10;;;20.90;47.70;;;;;;6110597;23;20014;-40
2021/04/20 09:22:21;;;;;;;24.70;20.15;;;21.00;46.40;;;;;;6210954;23;20020;-40
2021/04/20 09:25:22;;;;;;;46.33;41.63;;;21.10;47.00;;;;;;6207352;23;20020;-41
2021/04/20 09:28:05;;;;;;;49.78;44.85;;;21.70;45.00;;;;;;6141723;23;20021;-41
2021/04/20 09:30:43;;;;;;;45.33;40.90;;;21.70;42.80;;;;;;6141369;23;20021;-41
2021/04/20 09:33:18;;;;;;;37.85;33.95;;;21.70;44.30;;;;;;6151152;23;20025;-41
2021/04/20 09:35:46;;;;;;;72.22;64.93;;;22.00;43.80;;;;;;6116898;23;20045;-40
2021/04/20 09:38:16;;;;;;;27.38;22.35;;;22.20;44.50;;;;;;6143068;23;20024;-43
2021/04/20 09:40:45;;;;;;;55.95;50.33;;;21.70;42.70;;;;;;6151373;23;20029;-41
2021/04/20 09:43:37;;;;;;;26.33;20.60;;;22.10;43.90;;;;;;6140918;23;20024;-39
2021/04/20 09:46:11;;;;;;;31.10;26.80;;;22.00;42.80;;;;;;6149998;23;20057;-40
2021/04/20 09:48:58;;;;;;;21.98;19.88;;;22.10;42.80;;;;;;6140979;23;20022;-39
2021/04/20 09:51:35;;;;;;;21.92;19.67;;;22.10;43.30;;;;;;6140176;23;20096;-40
2021/04/20 09:54:27;;;;;;;30.30;27.27;;;21.60;42.80;;;;;;6114870;23;20021;-40
2021/04/20 09:57:07;;;;;;;22.65;20.17;;;22.10;43.50;;;;;;6141310;23;20077;-40
2021/04/20 09:59:48;;;;;;;34.35;21.30;;;22.40;42.70;;;;;;6141634;23;20025;-40
2021/04/20 10:02:46;;;;;;;39.00;25.27;;;22.40;42.60;;;;;;6141726;23;20049;-42
2021/04/20 10:05:21;;;;;;;20.52;18.42;;;22.70;43.20;;;;;;6193674;23;20549;-39
2021/04/20 10:08:32;;;;;;;22.45;18.77;;;22.90;42.00;;;;;;6198684;23;20036;-39
2021/04/20 10:11:40;;;;;;;20.08;18.17;;;23.00;40.80;;;;;;6231291;23;20095;-38
2021/04/20 10:14:24;;;;;;;20.35;18.35;;;23.10;41.20;;;;;;6205934;23;20382;-39
2021/04/20 10:17:14;;;;;;;21.42;19.25;;;23.10;40.80;;;;;;6231399;23;20413;-39
2021/04/20 10:19:59;;;;;;;20.58;18.40;;;23.40;38.80;;;;;;6205984;23;20586;-39
2021/04/20 10:22:45;;;;;;;22.10;19.92;;;23.70;41.70;;;;;;6232665;23;20028;-38
2021/04/20 10:25:39;;;;;;;18.77;14.38;;;23.40;40.70;;;;;;6207124;23;20019;-38
2021/04/20 10:28:42;;;;;;;17.50;15.85;;;23.10;41.60;;;;;;6191270;23;20462;-39
2021/04/20 10:31:17;;;;;;;17.77;13.75;;;23.40;38.80;;;;;;6243349;23;20357;-38
2021/04/20 10:33:48;;;;;;;20.95;14.43;;;23.10;38.90;;;;;;6216591;23;20016;-38
2021/04/20 10:36:15;;;;;;;;;;;22.80;40.40;;;;;;6237331;22;20016;-39
2021/04/20 10:38:43;;;;;;;29.92;19.80;;;23.20;38.80;;;;;;6239565;22;19946;-39
2021/04/20 10:41:30;;;;;;;352.30;61.45;;;23.20;39.70;;;;;;6236721;22;20051;-39
2021/04/20 10:43:57;;;;;;;25.75;19.30;;;23.60;37.90;;;;;;6244886;23;20026;-40
2021/04/20 10:46:25;;;;;;;285.95;80.70;;;23.40;37.60;;;;;;6247138;22;20020;-41
2021/04/20 10:48:57;;;;;;;340.83;84.15;;;24.10;38.00;;;;;;6248056;22;20050;-40
2021/04/20 10:51:44;;;;;;;73.63;27.88;;;24.10;38.30;;;;;;6234549;22;20345;-41
2021/04/20 10:54:18;;;;;;;18.88;12.48;;;23.90;35.10;;;;;;6245859;22;20437;-41
2021/04/20 10:56:55;;;;;;;14.40;12.90;;;23.60;36.50;;;;;;6236538;22;20024;-41
2021/04/20 10:59:28;;;;;;;13.45;11.50;;;23.60;34.20;;;;;;6246793;22;20024;-42
2021/04/20 11:01:58;;;;;;;34.40;20.13;;;24.30;33.80;;;;;;6237210;22;20020;-40
2021/04/20 11:04:27;;;;;;;12.18;9.48;;;24.20;35.60;;;;;;6235688;22;20020;-39
2021/04/20 11:07:17;;;;;;;17.33;13.55;;;24.50;33.80;;;;;;6246724;22;20020;-38
2021/04/20 11:09:44;;;;;;;17.45;13.02;;;23.70;32.80;;;;;;6265824;22;20102;-41
2021/04/20 11:12:13;;;;;;;31.08;27.77;;;23.70;33.20;;;;;;6266760;22;20732;-38
2021/04/20 11:14:56;;;;;;;24.38;13.13;;;23.50;32.20;;;;;;6275818;22;20024;-39
2021/04/20 11:17:30;;;;;;;13.02;9.10;;;23.50;32.50;;;;;;6276201;22;20016;-39
2021/04/20 11:20:12;;;;;;;13.30;11.63;;;23.50;31.20;;;;;;6277724;22;20349;-39
2021/04/20 11:22:58;;;;;;;13.73;8.23;;;24.00;32.60;;;;;;6267222;22;20054;-41
2021/04/20 11:25:33;;;;;;;9.88;6.82;;;24.40;30.10;;;;;;6266468;22;20026;-37
2021/04/20 11:28:08;;;;;;;10.13;7.10;;;24.90;29.90;;;;;;6268740;22;20030;-42
2021/04/20 11:30:44;;;;;;;7.68;6.35;;;24.80;32.00;;;;;;6268002;22;20027;-38
2021/04/20 11:33:14;;;;;;;12.93;7.68;;;24.50;31.10;;;;;;6240805;22;20334;-39
2021/04/20 11:35:47;;;;;;;8.63;6.75;;;24.50;30.80;;;;;;6276938;22;20039;-40
2021/04/20 11:38:18;;;;;;;9.95;6.57;;;24.70;31.60;;;;;;6268661;22;20047;-38
2021/04/20 11:41:03;;;;;;;9.77;6.03;;;24.80;30.00;;;;;;6267265;22;20016;-38
2021/04/20 11:43:34;;;;;;;9.90;5.45;;;25.00;30.10;;;;;;6266885;22;20868;-38
2021/04/20 11:46:06;;;;;;;10.52;6.13;;;25.00;29.10;;;;;;6265990;22;20019;-40
2021/04/20 11:48:36;;;;;;;11.93;6.25;;;25.00;29.50;;;;;;6267104;22;20051;-40
2021/04/20 11:51:06;;;;;;;7.43;5.43;;;25.00;28.60;;;;;;6266562;22;20483;-40
2021/04/20 11:53:45;;;;;;;10.53;6.43;;;25.20;28.20;;;;;;6251020;22;20016;-39
2021/04/20 11:56:12;;;;;;;11.20;6.78;;;24.90;28.40;;;;;;6238247;22;20361;-40
2021/04/20 11:58:41;;;;;;;10.70;6.15;;;25.00;29.20;;;;;;6266820;22;20016;-39
2021/04/20 12:01:15;;;;;;;9.85;5.90;;;25.00;28.80;;;;;;6266716;22;20334;-39
2021/04/20 12:04:00;;;;;;;9.40;6.25;;;24.50;28.10;;;;;;6266978;22;20103;-39
2021/04/20 12:06:39;;;;;;;12.48;6.82;;;24.50;28.30;;;;;;6275828;22;20020;-40
2021/04/20 12:09:06;;;;;;;10.93;7.38;;;24.40;27.70;;;;;;6268169;22;20023;-39
2021/04/20 12:11:34;;;;;;;11.30;7.32;;;24.10;28.60;;;;;;6266333;22;20046;-39
2021/04/20 12:14:02;;;;;;;9.95;6.93;;;24.20;28.20;;;;;;6277056;22;20667;-39
2021/04/20 12:16:35;;;;;;;12.88;7.70;;;24.20;27.90;;;;;;6238881;22;20031;-39
2021/04/20 12:19:08;;;;;;;7.75;6.18;;;24.60;27.80;;;;;;6238490;22;20015;-41
2021/04/20 12:21:39;;;;;;;9.82;6.20;;;24.50;28.10;;;;;;6266723;22;20053;-39
2021/04/20 12:24:08;;;;;;;18.95;16.95;;;24.60;27.60;;;;;;6241350;22;20047;-41
2021/04/20 12:26:37;;;;;;;29.42;26.33;;;24.80;27.10;;;;;;6275113;22;20016;-42
2021/04/20 12:29:12;;;;;;;35.60;31.92;;;25.10;27.80;;;;;;6267234;22;20043;-41
2021/04/20 12:31:39;;;;;;;14.80;10.18;;;25.00;27.80;;;;;;6251435;22;20719;-39
2021/04/20 12:34:10;;;;;;;16.30;11.57;;;25.10;27.10;;;;;;6267338;22;20767;-40
2021/04/20 12:36:52;;;;;;;10.40;6.38;;;25.60;26.60;;;;;;6267360;22;20027;-42
2021/04/20 12:39:46;;;;;;;19.13;10.95;;;25.00;26.20;;;;;;6276913;22;20028;-41
2021/04/20 12:42:19;;;;;;;37.30;33.40;;;24.80;26.50;;;;;;6239351;22;20035;-42
2021/04/20 12:44:52;;;;;;;35.40;31.88;;;25.30;27.20;;;;;;6276518;22;20490;-46
2021/04/20 12:47:31;;;;;;;21.52;16.92;;;25.40;26.90;;;;;;6266018;22;20460;-42
2021/04/20 12:50:01;;;;;;;22.73;19.02;;;25.30;26.90;;;;;;6266568;22;20136;-40
2021/04/20 12:52:29;;;;;;;16.88;12.13;;;25.50;27.30;;;;;;6266798;22;20206;-40
2021/04/20 12:55:07;;;;;;;14.90;8.55;;;25.50;27.30;;;;;;6267479;22;20015;-40
2021/04/20 12:57:43;;;;;;;16.15;9.35;;;25.30;25.90;;;;;;6276279;22;20109;-40
2021/04/20 13:00:16;;;;;;;7.82;5.63;;;25.20;26.10;;;;;;6238485;22;20023;-41
2021/04/20 13:02:46;;;;;;;10.18;5.90;;;25.50;27.30;;;;;;6266573;22;20019;-43
2021/04/20 13:05:16;;;;;;;8.35;5.13;;;25.50;27.00;;;;;;6277730;22;20019;-41
2021/04/20 13:07:50;;;;;;;10.45;7.03;;;25.70;26.50;;;;;;6265909;22;20757;-43